Ride Results

Kentish Endurance Ride 2009 (14-03-2009)
Ride distance: 80.0 km

Outcomes - Kentish Endurance Ride 2009 (14-03-2009)
Division No. of Entries Retired / DNE Completed Withdrawn Ineligible V/O Percentage Completed
HW 8 - 5 - - 3 62.50%
MW 19 - 10 7 - 2 52.63%
LW 15 - 11 1 - 3 73.33%
JN 12 - 8 3 - 1 66.67%
Totals 54 - 34 11 - 9 62.96%
Results - Kentish Endurance Ride 2009 (14-03-2009)
No. Rider Horse Place Time Leg Speeds Total
Km/Hr
H/R bpm
Heavyweight
49 Alison Colbeck Chanti 1 (BC) 6:09:00 14.1, 12.0 13.01 35, 49, 50 (Avg:49)
122 Ged Nicklason Wongawol Digger 1 6:09:00 13.8, 12.2 13.01 37, 50, 52 (Avg:51)
A Noel Lockhart Ralvon Splendour 3 6:19:00 12.9, 12.4 12.66 32, 35, 50 (Avg:42)
200 Jake Tammens Armidale Flash Jack 4 7:20:00 11.1, 10.7 10.91 31, 36, 44 (Avg:40)
14 Philip Gerke Davlyn Park Jameel 5 7:20:02 11.1, 10.7 10.91 40, 45, 53 (Avg:49)
17 Brett Bingham Sandine Aramis Lame L2 0:00:00 12.4, 10.0 - 36, 46, 54 (Avg:50)
36 Chris Webb Kalody Park Shubek Heart Rate L1 0:00:00 11.0 - 37, 60 (Avg:60)
45 Denise Williams Arcadian Park Jagger Lame L1 0:00:00 10.6 - 41, 52 (Avg:52)
Middleweight
99 Heather Johnson Touchwarr Dupal 1 (BC) 5:09:00 17.2, 14.1 15.53 37, 48, 49 (Avg:48)
88 Anthony Bloom Kerribea 2 5:44:00 15.9, 12.3 13.95 33, 42, 53 (Avg:47)
130 Shane Flint Yarraman 3 5:44:30 15.9, 12.3 13.93 35, 55, 57 (Avg:56)
38 Tony Purton Beer Street Dimity 4 6:15:00 13.0, 12.5 12.80 38, 50, 50 (Avg:50)
57 Tania Jago River Gum Bounty 5 6:19:00 13.1, 12.1 12.66 46, 44, 48 (Avg:46)
197 Erin Gadsby Sheikh 6 6:47:00 12.2, 11.3 11.79 35, 43, 48 (Avg:45)
139 Philip Banham Cassy 7 7:06:00 11.1, 11.3 11.27 33, 43, 56 (Avg:49)
40 Keren Wilde Russhy 8 7:11:00 12.0, 10.3 11.14 33, 42, 47 (Avg:44)
186 Karin Morris Capleach Samirah 9 7:17:00 11.4, 10.5 10.98 35, 44, 49 (Avg:46)
55 Jane Stratton Ledger 10 7:22:00 10.6, 11.0 10.86 43, 43, 46 (Avg:44)
30 Karyn Holden Sharabhan Sashmah Lame L2 0:00:00 10.9, 10.6 - 36, 44, 46 (Avg:45)
43 Bonny Burgess Rythem Withdrawn L1 0:00:00 - - 30, 55 (Avg:55)
41 Andrew Driscoll Davlyn Park Pegasus Withdrawn L1 0:00:00 - - 36, 43 (Avg:43)
132 Carolyn Foley-Jones Highland View C Lame L1 0:00:00 12.4 - 30, 37 (Avg:37)
143 Pauline Goodwin Royale Special Cola Withdrawn L1 0:00:00 - - 36, 43 (Avg:43)
102 Keryn Mahoney Tonki Dee Boo Felicity Withdrawn L1 0:00:00 - - 33, 38 (Avg:38)
85 Tammy Miller Crystalyn Golden Angel Withdrawn L1 0:00:00 - - 36, 43 (Avg:43)
10 Libby Webb Sayida Mufti Withdrawn L1 0:00:00 - - 39, 51 (Avg:51)
24 Kylie Williams Piper Withdrawn L1 0:00:00 - - 37, 43 (Avg:43)
Lightweight
144 Helan Green Snowdon Vale Estarah 1 (BC) 5:09:00 16.4, 14.7 15.53 37, 46, 50 (Avg:48)
60 Jill Lowth Orabanda Dancing Silhouette 2 6:09:00 13.8, 12.2 13.01 36, 47, 51 (Avg:49)
136 Kaye Mitchell Beer Street Bluewitch 3 6:15:00 12.9, 12.6 12.80 36, 41, 41 (Avg:41)
81 Alison Simpson Sandine Balgriffen 4 6:19:00 13.1, 12.1 12.66 38, 45, 55 (Avg:50)
83 Angie Clark At Cash 5 6:33:01 12.0, 12.3 12.21 42, 43, 53 (Avg:48)
48 Toni Sheehan Malricia TC Jilagic 6 6:52:00 12.3, 11.0 11.65 39, 45, 48 (Avg:46)
199 Phoebe Harper Banks Enderby Rakaia 7 7:06:00 11.1, 11.3 11.27 38, 42, 59 (Avg:50)
185 Debbie Grull Lauralyn Notorious 8 7:06:02 12.4, 10.2 11.27 56, 46, 50 (Avg:48)
187 Rachel Bennett Candy 9 7:11:00 12.0, 10.3 11.14 35, 43, 55 (Avg:49)
196 Fran Jordan Tierview Saadat 10 7:17:30 11.4, 10.5 10.97 37, 48, 55 (Avg:51)
1 Ann Richards Middleton's Rousabout 11 7:25:00 10.9, 10.6 10.79 30, 39, 46 (Avg:42)
19 Sonia Hodgetts Millennium Star Lame L2 0:00:00 16.1, 14.9 - 38, 47, 53 (Avg:50)
148 Jeremy Robertson Pilaman Lame L2 0:00:00 12.9, 12.5 - 38, 47, 54 (Avg:50)
117 Penny Lasdauskas Winston Withdrawn L1 0:00:00 - - 35, 45 (Avg:45)
77 Alison Lockhart Daarsoto Lame L1 0:00:00 12.9 - 40, 49 (Avg:49)
Junior
79 Shannon Hill Glendhu Judah 1 5:48:00 15.0, 12.6 13.79 30, 48, 50 (Avg:49)
92 Blaine Astell Kalkadoon Zambezi 2 6:04:00 13.1, 13.1 13.19 32, 46, 47 (Avg:46)
121 Darcy Nicklason Bindi 3 (BC) 6:07:00 13.8, 12.3 13.08 34, 43, 51 (Avg:47)
194 Luke Plane Glanheathyn Whistler 4 6:15:00 13.0, 12.5 12.80 30, 45, 51 (Avg:48)
78 Brad Hill Sandine Allure 5 6:19:00 12.9, 12.4 12.66 41, 47, 48 (Avg:47)
107 Samantha Sward Follydown Gai Rah-Ni 6 7:06:00 11.1, 11.3 11.27 37, 42, 48 (Avg:45)
128 Korey Stratton Pancho 7 7:22:00 10.6, 11.0 10.86 36, 42, 45 (Avg:43)
150 Emily Shadbolt Karillon Park Barkodar Bay 8 7:26:00 10.9, 10.6 10.76 38, 39, 43 (Avg:41)
90 Joshua Williams Karshana Crystal Blue Blaze Lame L2 0:00:00 13.1, 13.1 - 32, 40, 46 (Avg:43)
18 Sheleah Astell Cameo Izaiah Withdrawn L1 0:00:00 - - 38, 45 (Avg:45)
188 Josie Lazdauskas Wendy Lalani Withdrawn L1 0:00:00 - - 43, 52 (Avg:52)
5 Kelsey Webb Lauralyn Waseem Withdrawn L1 0:00:00 - - 32, 39 (Avg:39)